CMA CGM Thalassa — 5BNE2 — position and weather

sailwx.info

Track history (hours):
 
Tides and Currents Weather Stations Pressure Air Temp Water Temp Dewpoint Dewpoint Depression Visibility Wind Speed Wind Dir Waves Ship Positions

CMA CGM Thalassa

Last reported at 2015-May-04 00:34 UTC. Time now 2015-May-04 00:57 UTC.
Position N 49°41' W 000°27'.

Length 347 m; draft 14.1 m.

Type: Cargo ship. MMSI: 212151000.

Date/timePositionNaut miles runAvg speedWind from/ knotsBaromVisibWave heightAir tempDewpointWater temp
2015-May-04 00:34N 49°41' W 000°27'1 1.3
2015-May-03 23:33N 49°40' W 000°26'1 1.4
2015-May-03 22:34N 49°39' W 000°25'9 9.3
2015-May-03 21:34N 49°46' W 000°34'42 8.3
2015-May-03 16:32N 50°26' W 000°54'8 8.2
2015-May-03 15:34N 50°34' W 000°57'8 8.4
2015-May-03 14:33N 50°43' W 000°58'1211.8
2015-May-03 13:34N 50°46' W 001°15'10 8.6
2015-May-03 12:25N 50°54' W 001°25'2 0.3
2015-May-03 06:32N 50°54' W 001°28'0 0.0
2015-May-03 04:22N 50°54' W 001°28'0 0.0
2015-May-03 03:31N 50°54' W 001°28'0 0.0
2015-May-03 02:18N 50°54' W 001°28'2 0.3
2015-May-02 19:32N 50°54' W 001°25'8 7.9
2015-May-02 18:34N 50°47' W 001°19'1514.6
2015-May-02 17:33N 50°42' W 000°57'1212.1
2015-May-02 16:34N 50°31' W 000°52'1414.1
2015-May-02 15:33N 50°28' W 000°30'1413.4
2015-May-02 14:32N 50°30' W 000°09'1111.4
2015-May-02 13:33N 50°32' E 000°08'1312.7
2015-May-02 12:33N 50°35' E 000°27'1312.6
2015-May-02 11:34N 50°41' E 000°45'1211.6
2015-May-02 10:34N 50°47' E 001°01'1010.3
2015-May-02 09:33N 50°53' E 001°14'9 9.4
2015-May-02 08:33N 50°60' E 001°25'1211.9
2015-May-02 07:33N 51°08' E 001°38'1515.2
2015-May-02 06:34N 51°20' E 001°53'1211.6
2015-May-02 05:34N 51°22' E 002°11'1414.2
2015-May-02 04:33N 51°23' E 002°34'1414.1
2015-May-02 03:33N 51°25' E 002°56'1111.0
2015-May-02 02:34N 51°21' E 003°12'1 0.5
2015-May-02 01:33N 51°20' E 003°12'0 0.0
2015-May-02 00:33N 51°20' E 003°12'0 0.0
2015-May-01 23:32N 51°20' E 003°12'0 0.0
2015-May-01 22:32N 51°20' E 003°12'0 0.0
2015-May-01 21:31N 51°20' E 003°12'0 0.0
2015-May-01 20:28N 51°20' E 003°12'0 0.0
2015-May-01 19:33N 51°20' E 003°12'0 0.0
2015-May-01 18:21N 51°20' E 003°12'0 0.0
2015-May-01 17:33N 51°20' E 003°12'0 0.0
2015-May-01 16:32N 51°20' E 003°12'0 0.0
2015-May-01 15:32N 51°20' E 003°12'0 0.0
2015-May-01 14:31N 51°20' E 003°12'0 0.0
2015-May-01 13:31N 51°20' E 003°12'1 1.0
2015-May-01 12:33N 51°21' E 003°12'1212.2
2015-May-01 11:33N 51°25' E 002°54'7 7.2
2015-May-01 10:33N 51°27' E 002°42'1312.8
2015-May-01 09:33N 51°38' E 002°52'2217.4
2015-May-01 08:16N 51°54' E 003°18'1115.7
2015-May-01 07:33N 52°03' E 003°29'1615.9
2015-May-01 06:33N 52°02' E 003°55'8 7.9
2015-May-01 05:33N 51°57' E 004°04'0 0.3
2015-May-01 04:31N 51°57' E 004°03'0 0.0
2015-May-01 03:28N 51°57' E 004°03'0 0.0
2015-May-01 02:33N 51°57' E 004°03'0 0.0
2015-May-01 01:33N 51°57' E 004°03'0 0.0
2015-May-01 00:33N 51°57' E 004°03'0 0.0
2015-Apr-30 23:29N 51°57' E 004°03'0 0.0
2015-Apr-30 22:32N 51°57' E 004°03'0 0.0
2015-Apr-30 21:31N 51°57' E 004°03'0 0.0
2015-Apr-30 20:31N 51°57' E 004°03'0 0.0
2015-Apr-30 19:33N 51°57' E 004°03'0 0.0
2015-Apr-30 18:33N 51°57' E 004°03'0 0.0
2015-Apr-30 17:32N 51°57' E 004°03'0 0.0
2015-Apr-30 16:32N 51°57' E 004°03'0 0.0
2015-Apr-30 15:32N 51°57' E 004°03'0 0.0
2015-Apr-30 14:28N 51°57' E 004°03'0 0.0
2015-Apr-30 13:31N 51°57' E 004°03'0 0.0
2015-Apr-30 12:33N 51°57' E 004°03'0 0.0
2015-Apr-30 11:33N 51°57' E 004°03'0 0.0
2015-Apr-30 10:32N 51°57' E 004°03'0 0.0
2015-Apr-30 09:32N 51°57' E 004°03'0 0.0
2015-Apr-30 08:32N 51°57' E 004°03'0 0.0
2015-Apr-30 07:31N 51°57' E 004°03'0 0.0
2015-Apr-30 06:31N 51°57' E 004°03'0 0.0
2015-Apr-30 05:33N 51°57' E 004°03'0 0.0
2015-Apr-30 04:33N 51°57' E 004°03'0 0.0
2015-Apr-30 03:33N 51°57' E 004°03'0 0.0
2015-Apr-30 02:32N 51°57' E 004°03'0 0.0
2015-Apr-30 01:32N 51°57' E 004°03'0 0.0
2015-Apr-30 00:25N 51°57' E 004°03'0 0.0
2015-Apr-29 23:31N 51°57' E 004°03'0 0.0
2015-Apr-29 22:33N 51°57' E 004°03'0 0.0
2015-Apr-29 21:33N 51°57' E 004°03'2 2.0
2015-Apr-29 20:34N 51°59' E 004°05'9 8.9
2015-Apr-29 19:33N 52°01' E 003°51'6 6.2
2015-Apr-29 18:33N 52°06' E 003°46'7 7.4
2015-Apr-29 17:33N 52°14' E 003°46'9 8.7
2015-Apr-29 16:33N 52°22' E 003°49'9 8.5
2015-Apr-29 15:33N 52°31' E 003°51'8 7.9
2015-Apr-29 14:33N 52°38' E 003°54'7 6.9
2015-Apr-29 13:33N 52°45' E 003°56'42 7.0
2015-Apr-29 07:30N 53°22' E 004°32'9 9.5
2015-Apr-29 06:33N 53°29' E 004°40'10 9.6
2015-Apr-29 05:33N 53°33' E 004°55'9 9.3
2015-Apr-29 04:33N 53°36' E 005°10'9 9.0
2015-Apr-29 03:33N 53°39' E 005°24'9 8.8
2015-Apr-29 02:33N 53°42' E 005°38'9 9.1
2015-Apr-29 01:33N 53°45' E 005°53'10 9.8
2015-Apr-29 00:33N 53°48' E 006°09'1310.8
2015-Apr-28 23:20N 53°51' E 006°30'2011.0
2015-Apr-28 21:31N 53°56' E 007°03'1010.7
2015-Apr-28 20:33N 53°58' E 007°20'1010.3
2015-Apr-28 19:33N 54°01' E 007°37'10 9.6
2015-Apr-28 18:33N 54°01' E 007°53'10 9.6
2015-Apr-28 17:33N 54°01' E 008°09'1313.0
2015-Apr-28 16:34N 53°58' E 008°31'1414.0
2015-Apr-28 15:33N 53°50' E 008°51'1515.3
2015-Apr-28 14:33N 53°52' E 009°17'1616.1
2015-Apr-28 13:34N 53°39' E 009°31'1211.5
2015-Apr-28 12:33N 53°33' E 009°48'4 3.8
2015-Apr-28 11:31N 53°32' E 009°55'0 0.0
2015-Apr-28 10:31N 53°32' E 009°55'0 0.0
2015-Apr-28 09:33N 53°32' E 009°55'0 0.0
2015-Apr-28 08:33N 53°32' E 009°55'0 0.0
2015-Apr-28 07:32N 53°32' E 009°55'0 0.0
2015-Apr-28 06:32N 53°32' E 009°55'0 0.0
2015-Apr-28 05:30N 53°32' E 009°55'0 0.0
2015-Apr-28 04:25N 53°32' E 009°55'0 0.0
2015-Apr-28 03:24N 53°32' E 009°55'0 0.0
2015-Apr-28 02:24N 53°32' E 009°55'0 0.0
2015-Apr-28 01:30N 53°32' E 009°55'0 0.0
2015-Apr-28 00:29N 53°32' E 009°55'0 0.0
2015-Apr-27 23:20N 53°32' E 009°55'0 0.0
2015-Apr-27 22:28N 53°32' E 009°55'0 0.0
2015-Apr-27 21:25N 53°32' E 009°55'0 0.0
2015-Apr-27 20:30N 53°32' E 009°55'0 0.0
2015-Apr-27 19:24N 53°32' E 009°55'0 0.0
2015-Apr-27 18:30N 53°32' E 009°55'0 0.0
2015-Apr-27 17:09N 53°32' E 009°55'0 0.0
2015-Apr-27 16:31N 53°32' E 009°55'0 0.0
2015-Apr-27 15:26N 53°32' E 009°55'0 0.0
2015-Apr-27 14:33N 53°32' E 009°55'0 0.0
2015-Apr-27 13:31N 53°32' E 009°55'0 0.0
2015-Apr-27 12:24N 53°32' E 009°55'0 0.0
2015-Apr-27 11:18N 53°32' E 009°55'0 0.0
2015-Apr-27 10:33N 53°32' E 009°55'0 0.0
2015-Apr-27 09:29N 53°32' E 009°55'0 0.0
2015-Apr-27 08:29N 53°32' E 009°55'0 0.0
2015-Apr-27 07:28N 53°32' E 009°55'0 0.0
2015-Apr-27 06:31N 53°32' E 009°55'0 0.0
2015-Apr-27 05:30N 53°32' E 009°55'0 0.0
2015-Apr-27 04:21N 53°32' E 009°55'0 0.0
2015-Apr-27 03:33N 53°32' E 009°55'0 0.4
2015-Apr-27 02:30N 53°32' E 009°54'6 6.7
2015-Apr-27 01:33N 53°34' E 009°44'9 9.2
2015-Apr-27 00:33N 53°39' E 009°31'1111.3
2015-Apr-26 23:33N 53°49' E 009°22'9 9.3
2015-Apr-26 22:33N 53°53' E 009°08'1212.3
2015-Apr-26 21:34N 53°50' E 008°47'1212.1
2015-Apr-26 20:33N 53°58' E 008°32'1313.4
2015-Apr-26 19:33N 53°60' E 008°09'1616.1
2015-Apr-26 18:33N 53°57' E 007°42'1919.1
2015-Apr-26 17:33N 53°53' E 007°10'1815.4
2015-Apr-26 16:23N 53°49' E 006°41'1214.8
2015-Apr-26 15:33N 53°46' E 006°20'1413.8
2015-Apr-26 14:33N 53°39' E 005°60'4 4.0
2015-Apr-26 13:33N 53°39' E 005°53'1615.5
2015-Apr-26 12:33N 53°35' E 005°28'1414.3
2015-Apr-26 11:33N 53°31' E 005°05'1414.3
2015-Apr-26 10:33N 53°25' E 004°43'1414.1
2015-Apr-26 09:33N 53°12' E 004°32'1614.0
2015-Apr-26 08:23N 52°58' E 004°19'9412.9
2015-Apr-26 01:05N 51°47' E 002°37'712.4
2015-Apr-26 00:32N 51°42' E 002°30'1212.6
2015-Apr-25 23:33N 51°33' E 002°17'1313.2
2015-Apr-25 22:33N 51°23' E 002°03'1313.1
2015-Apr-25 21:33N 51°13' E 001°49'1110.7
2015-Apr-25 20:33N 51°02' E 001°48'1414.1
2015-Apr-25 19:33N 51°02' E 002°10'1 1.3
2015-Apr-25 18:28N 51°00' E 002°11'0 0.0
2015-Apr-25 17:33N 51°00' E 002°11'0 0.0
2015-Apr-25 16:33N 51°00' E 002°11'0 0.0
2015-Apr-25 15:34N 51°00' E 002°11'0 0.0
2015-Apr-25 14:32N 51°00' E 002°11'0 0.0
2015-Apr-25 13:27N 51°00' E 002°11'0 0.0
2015-Apr-25 12:33N 51°00' E 002°11'0 0.0
2015-Apr-25 11:21N 51°00' E 002°11'0 0.0
2015-Apr-25 10:32N 51°00' E 002°11'0 0.0
2015-Apr-25 09:14N 51°00' E 002°11'0 0.0
2015-Apr-25 07:22N 51°00' E 002°11'0 0.0
2015-Apr-25 06:21N 51°00' E 002°11'0 0.0
2015-Apr-25 05:18N 51°00' E 002°11'0 0.0
2015-Apr-25 04:17N 51°00' E 002°11'0 0.0
2015-Apr-25 03:29N 51°00' E 002°11'1 1.5
2015-Apr-25 02:33N 51°02' E 002°10'1212.0
2015-Apr-25 01:33N 51°02' E 001°51'9 8.8
2015-Apr-25 00:33N 51°01' E 001°38'10 9.5
2015-Apr-24 23:33N 50°54' E 001°27'13 9.7
2015-Apr-24 22:15N 50°42' E 001°21'8 9.6
2015-Apr-24 21:23N 50°36' E 001°11'9 9.8
2015-Apr-24 20:28N 50°31' E 000°60'10 9.6
2015-Apr-24 19:25N 50°27' E 000°45'42 8.5
2015-Apr-24 14:32N 50°04' W 000°09'1010.6
2015-Apr-24 13:33N 49°54' W 000°12'1111.5
2015-Apr-24 12:33N 49°43' W 000°16'1010.4
2015-Apr-24 11:33N 49°34' W 000°07'1111.5
2015-Apr-24 10:33N 49°28' E 000°08'2 1.4
2015-Apr-24 09:20N 49°27' E 000°10'0 0.0
2015-Apr-24 08:20N 49°27' E 000°10'0 0.0
2015-Apr-24 07:31N 49°27' E 000°10'0 0.0
2015-Apr-24 06:25N 49°27' E 000°10'0 0.0
2015-Apr-24 05:31N 49°27' E 000°10'0 0.0
2015-Apr-24 04:30N 49°27' E 000°10'0 0.0
2015-Apr-24 03:12N 49°27' E 000°10'0 0.0
2015-Apr-24 02:29N 49°27' E 000°10'0 0.0
2015-Apr-24 01:23N 49°27' E 000°10'  
Track history (hours):
 
Tides and Currents Weather Stations Pressure Air Temp Water Temp Dewpoint Dewpoint Depression Visibility Wind Speed Wind Dir Waves Ship Positions

CMA CGM Thalassa

Last reported at 2015-May-04 00:34 UTC. Time now 2015-May-04 00:57 UTC.
Position N 49°41' W 000°27'.

Length 347 m; draft 14.1 m.

Type: Cargo ship. MMSI: 212151000.

Date/timePositionNaut miles runAvg speedWind from/ knotsBaromVisibWave heightAir tempDewpointWater temp
2015-May-04 00:34N 49°41' W 000°27'1 1.3
2015-May-03 23:33N 49°40' W 000°26'1 1.4
2015-May-03 22:34N 49°39' W 000°25'9 9.3
2015-May-03 21:34N 49°46' W 000°34'42 8.3
2015-May-03 16:32N 50°26' W 000°54'8 8.2
2015-May-03 15:34N 50°34' W 000°57'8 8.4
2015-May-03 14:33N 50°43' W 000°58'1211.8
2015-May-03 13:34N 50°46' W 001°15'10 8.6
2015-May-03 12:25N 50°54' W 001°25'2 0.3
2015-May-03 06:32N 50°54' W 001°28'0 0.0
2015-May-03 04:22N 50°54' W 001°28'0 0.0
2015-May-03 03:31N 50°54' W 001°28'0 0.0
2015-May-03 02:18N 50°54' W 001°28'2 0.3
2015-May-02 19:32N 50°54' W 001°25'8 7.9
2015-May-02 18:34N 50°47' W 001°19'1514.6
2015-May-02 17:33N 50°42' W 000°57'1212.1
2015-May-02 16:34N 50°31' W 000°52'1414.1
2015-May-02 15:33N 50°28' W 000°30'1413.4
2015-May-02 14:32N 50°30' W 000°09'1111.4
2015-May-02 13:33N 50°32' E 000°08'1312.7
2015-May-02 12:33N 50°35' E 000°27'1312.6
2015-May-02 11:34N 50°41' E 000°45'1211.6
2015-May-02 10:34N 50°47' E 001°01'1010.3
2015-May-02 09:33N 50°53' E 001°14'9 9.4
2015-May-02 08:33N 50°60' E 001°25'1211.9
2015-May-02 07:33N 51°08' E 001°38'1515.2
2015-May-02 06:34N 51°20' E 001°53'1211.6
2015-May-02 05:34N 51°22' E 002°11'1414.2
2015-May-02 04:33N 51°23' E 002°34'1414.1
2015-May-02 03:33N 51°25' E 002°56'1111.0
2015-May-02 02:34N 51°21' E 003°12'1 0.5
2015-May-02 01:33N 51°20' E 003°12'0 0.0
2015-May-02 00:33N 51°20' E 003°12'0 0.0
2015-May-01 23:32N 51°20' E 003°12'0 0.0
2015-May-01 22:32N 51°20' E 003°12'0 0.0
2015-May-01 21:31N 51°20' E 003°12'0 0.0
2015-May-01 20:28N 51°20' E 003°12'0 0.0
2015-May-01 19:33N 51°20' E 003°12'0 0.0
2015-May-01 18:21N 51°20' E 003°12'0 0.0
2015-May-01 17:33N 51°20' E 003°12'0 0.0
2015-May-01 16:32N 51°20' E 003°12'0 0.0
2015-May-01 15:32N 51°20' E 003°12'0 0.0
2015-May-01 14:31N 51°20' E 003°12'0 0.0
2015-May-01 13:31N 51°20' E 003°12'1 1.0
2015-May-01 12:33N 51°21' E 003°12'1212.2
2015-May-01 11:33N 51°25' E 002°54'7 7.2
2015-May-01 10:33N 51°27' E 002°42'1312.8
2015-May-01 09:33N 51°38' E 002°52'2217.4
2015-May-01 08:16N 51°54' E 003°18'1115.7
2015-May-01 07:33N 52°03' E 003°29'1615.9
2015-May-01 06:33N 52°02' E 003°55'8 7.9
2015-May-01 05:33N 51°57' E 004°04'0 0.3
2015-May-01 04:31N 51°57' E 004°03'0 0.0
2015-May-01 03:28N 51°57' E 004°03'0 0.0
2015-May-01 02:33N 51°57' E 004°03'0 0.0
2015-May-01 01:33N 51°57' E 004°03'0 0.0
2015-May-01 00:33N 51°57' E 004°03'0 0.0
2015-Apr-30 23:29N 51°57' E 004°03'0 0.0
2015-Apr-30 22:32N 51°57' E 004°03'0 0.0
2015-Apr-30 21:31N 51°57' E 004°03'0 0.0
2015-Apr-30 20:31N 51°57' E 004°03'0 0.0
2015-Apr-30 19:33N 51°57' E 004°03'0 0.0
2015-Apr-30 18:33N 51°57' E 004°03'0 0.0
2015-Apr-30 17:32N 51°57' E 004°03'0 0.0
2015-Apr-30 16:32N 51°57' E 004°03'0 0.0
2015-Apr-30 15:32N 51°57' E 004°03'0 0.0
2015-Apr-30 14:28N 51°57' E 004°03'0 0.0
2015-Apr-30 13:31N 51°57' E 004°03'0 0.0
2015-Apr-30 12:33N 51°57' E 004°03'0 0.0
2015-Apr-30 11:33N 51°57' E 004°03'0 0.0
2015-Apr-30 10:32N 51°57' E 004°03'0 0.0
2015-Apr-30 09:32N 51°57' E 004°03'0 0.0
2015-Apr-30 08:32N 51°57' E 004°03'0 0.0
2015-Apr-30 07:31N 51°57' E 004°03'0 0.0
2015-Apr-30 06:31N 51°57' E 004°03'0 0.0
2015-Apr-30 05:33N 51°57' E 004°03'0 0.0
2015-Apr-30 04:33N 51°57' E 004°03'0 0.0
2015-Apr-30 03:33N 51°57' E 004°03'0 0.0
2015-Apr-30 02:32N 51°57' E 004°03'0 0.0
2015-Apr-30 01:32N 51°57' E 004°03'0 0.0
2015-Apr-30 00:25N 51°57' E 004°03'0 0.0
2015-Apr-29 23:31N 51°57' E 004°03'0 0.0
2015-Apr-29 22:33N 51°57' E 004°03'0 0.0
2015-Apr-29 21:33N 51°57' E 004°03'2 2.0
2015-Apr-29 20:34N 51°59' E 004°05'9 8.9
2015-Apr-29 19:33N 52°01' E 003°51'6 6.2
2015-Apr-29 18:33N 52°06' E 003°46'7 7.4
2015-Apr-29 17:33N 52°14' E 003°46'9 8.7
2015-Apr-29 16:33N 52°22' E 003°49'9 8.5
2015-Apr-29 15:33N 52°31' E 003°51'8 7.9
2015-Apr-29 14:33N 52°38' E 003°54'7 6.9
2015-Apr-29 13:33N 52°45' E 003°56'42 7.0
2015-Apr-29 07:30N 53°22' E 004°32'9 9.5
2015-Apr-29 06:33N 53°29' E 004°40'10 9.6
2015-Apr-29 05:33N 53°33' E 004°55'9 9.3
2015-Apr-29 04:33N 53°36' E 005°10'9 9.0
2015-Apr-29 03:33N 53°39' E 005°24'9 8.8
2015-Apr-29 02:33N 53°42' E 005°38'9 9.1
2015-Apr-29 01:33N 53°45' E 005°53'10 9.8
2015-Apr-29 00:33N 53°48' E 006°09'1310.8
2015-Apr-28 23:20N 53°51' E 006°30'2011.0
2015-Apr-28 21:31N 53°56' E 007°03'1010.7
2015-Apr-28 20:33N 53°58' E 007°20'1010.3
2015-Apr-28 19:33N 54°01' E 007°37'10 9.6
2015-Apr-28 18:33N 54°01' E 007°53'10 9.6
2015-Apr-28 17:33N 54°01' E 008°09'1313.0
2015-Apr-28 16:34N 53°58' E 008°31'1414.0
2015-Apr-28 15:33N 53°50' E 008°51'1515.3
2015-Apr-28 14:33N 53°52' E 009°17'1616.1
2015-Apr-28 13:34N 53°39' E 009°31'1211.5
2015-Apr-28 12:33N 53°33' E 009°48'4 3.8
2015-Apr-28 11:31N 53°32' E 009°55'0 0.0
2015-Apr-28 10:31N 53°32' E 009°55'0 0.0
2015-Apr-28 09:33N 53°32' E 009°55'0 0.0
2015-Apr-28 08:33N 53°32' E 009°55'0 0.0
2015-Apr-28 07:32N 53°32' E 009°55'0 0.0
2015-Apr-28 06:32N 53°32' E 009°55'0 0.0
2015-Apr-28 05:30N 53°32' E 009°55'0 0.0
2015-Apr-28 04:25N 53°32' E 009°55'0 0.0
2015-Apr-28 03:24N 53°32' E 009°55'0 0.0
2015-Apr-28 02:24N 53°32' E 009°55'0 0.0
2015-Apr-28 01:30N 53°32' E 009°55'0 0.0
2015-Apr-28 00:29N 53°32' E 009°55'0 0.0
2015-Apr-27 23:20N 53°32' E 009°55'0 0.0
2015-Apr-27 22:28N 53°32' E 009°55'0 0.0
2015-Apr-27 21:25N 53°32' E 009°55'0 0.0
2015-Apr-27 20:30N 53°32' E 009°55'0 0.0
2015-Apr-27 19:24N 53°32' E 009°55'0 0.0
2015-Apr-27 18:30N 53°32' E 009°55'0 0.0
2015-Apr-27 17:09N 53°32' E 009°55'0 0.0
2015-Apr-27 16:31N 53°32' E 009°55'0 0.0
2015-Apr-27 15:26N 53°32' E 009°55'0 0.0
2015-Apr-27 14:33N 53°32' E 009°55'0 0.0
2015-Apr-27 13:31N 53°32' E 009°55'0 0.0
2015-Apr-27 12:24N 53°32' E 009°55'0 0.0
2015-Apr-27 11:18N 53°32' E 009°55'0 0.0
2015-Apr-27 10:33N 53°32' E 009°55'0 0.0
2015-Apr-27 09:29N 53°32' E 009°55'0 0.0
2015-Apr-27 08:29N 53°32' E 009°55'0 0.0
2015-Apr-27 07:28N 53°32' E 009°55'0 0.0
2015-Apr-27 06:31N 53°32' E 009°55'0 0.0
2015-Apr-27 05:30N 53°32' E 009°55'0 0.0
2015-Apr-27 04:21N 53°32' E 009°55'0 0.0
2015-Apr-27 03:33N 53°32' E 009°55'0 0.4
2015-Apr-27 02:30N 53°32' E 009°54'6 6.7
2015-Apr-27 01:33N 53°34' E 009°44'9 9.2
2015-Apr-27 00:33N 53°39' E 009°31'1111.3
2015-Apr-26 23:33N 53°49' E 009°22'9 9.3
2015-Apr-26 22:33N 53°53' E 009°08'1212.3
2015-Apr-26 21:34N 53°50' E 008°47'1212.1
2015-Apr-26 20:33N 53°58' E 008°32'1313.4
2015-Apr-26 19:33N 53°60' E 008°09'1616.1
2015-Apr-26 18:33N 53°57' E 007°42'1919.1
2015-Apr-26 17:33N 53°53' E 007°10'1815.4
2015-Apr-26 16:23N 53°49' E 006°41'1214.8
2015-Apr-26 15:33N 53°46' E 006°20'1413.8
2015-Apr-26 14:33N 53°39' E 005°60'4 4.0
2015-Apr-26 13:33N 53°39' E 005°53'1615.5
2015-Apr-26 12:33N 53°35' E 005°28'1414.3
2015-Apr-26 11:33N 53°31' E 005°05'1414.3
2015-Apr-26 10:33N 53°25' E 004°43'1414.1
2015-Apr-26 09:33N 53°12' E 004°32'1614.0
2015-Apr-26 08:23N 52°58' E 004°19'9412.9
2015-Apr-26 01:05N 51°47' E 002°37'712.4
2015-Apr-26 00:32N 51°42' E 002°30'1212.6
2015-Apr-25 23:33N 51°33' E 002°17'1313.2
2015-Apr-25 22:33N 51°23' E 002°03'1313.1
2015-Apr-25 21:33N 51°13' E 001°49'1110.7
2015-Apr-25 20:33N 51°02' E 001°48'1414.1
2015-Apr-25 19:33N 51°02' E 002°10'1 1.3
2015-Apr-25 18:28N 51°00' E 002°11'0 0.0
2015-Apr-25 17:33N 51°00' E 002°11'0 0.0
2015-Apr-25 16:33N 51°00' E 002°11'0 0.0
2015-Apr-25 15:34N 51°00' E 002°11'0 0.0
2015-Apr-25 14:32N 51°00' E 002°11'0 0.0
2015-Apr-25 13:27N 51°00' E 002°11'0 0.0
2015-Apr-25 12:33N 51°00' E 002°11'0 0.0
2015-Apr-25 11:21N 51°00' E 002°11'0 0.0
2015-Apr-25 10:32N 51°00' E 002°11'0 0.0
2015-Apr-25 09:14N 51°00' E 002°11'0 0.0
2015-Apr-25 07:22N 51°00' E 002°11'0 0.0
2015-Apr-25 06:21N 51°00' E 002°11'0 0.0
2015-Apr-25 05:18N 51°00' E 002°11'0 0.0
2015-Apr-25 04:17N 51°00' E 002°11'0 0.0
2015-Apr-25 03:29N 51°00' E 002°11'1 1.5
2015-Apr-25 02:33N 51°02' E 002°10'1212.0
2015-Apr-25 01:33N 51°02' E 001°51'9 8.8
2015-Apr-25 00:33N 51°01' E 001°38'10 9.5
2015-Apr-24 23:33N 50°54' E 001°27'13 9.7
2015-Apr-24 22:15N 50°42' E 001°21'8 9.6
2015-Apr-24 21:23N 50°36' E 001°11'9 9.8
2015-Apr-24 20:28N 50°31' E 000°60'10 9.6
2015-Apr-24 19:25N 50°27' E 000°45'42 8.5
2015-Apr-24 14:32N 50°04' W 000°09'1010.6
2015-Apr-24 13:33N 49°54' W 000°12'1111.5
2015-Apr-24 12:33N 49°43' W 000°16'1010.4
2015-Apr-24 11:33N 49°34' W 000°07'1111.5
2015-Apr-24 10:33N 49°28' E 000°08'2 1.4
2015-Apr-24 09:20N 49°27' E 000°10'0 0.0
2015-Apr-24 08:20N 49°27' E 000°10'0 0.0
2015-Apr-24 07:31N 49°27' E 000°10'0 0.0
2015-Apr-24 06:25N 49°27' E 000°10'0 0.0
2015-Apr-24 05:31N 49°27' E 000°10'0 0.0
2015-Apr-24 04:30N 49°27' E 000°10'0 0.0
2015-Apr-24 03:12N 49°27' E 000°10'0 0.0
2015-Apr-24 02:29N 49°27' E 000°10'0 0.0
2015-Apr-24 01:23N 49°27' E 000°10'  

Dump ship's entire track history